Time;durP1;ratioP1;P1;durP2;ratioP2;P2;SDS_P1;SDS_P2;PMS_P1;PMS_P2;Temp;Humidity;BMP_temperature;BMP_pressure;BME280_temperature;BME280_humidity;BME280_pressure;Samples;Min_cycle;Max_cycle;Signal;HPM_P1;HPM_P2
2024/01/02 00:00:00;;;;;;;35.15;9.27;;;;;;;;;;6312179;28;20036;-61
2024/01/02 00:03:01;;;;;;;37.00;9.73;;;;;;;;;;6302120;28;20044;-61
2024/01/02 00:06:02;;;;;;;32.50;10.20;;;;;;;;;;6242617;28;1298388;-61
2024/01/02 00:09:03;;;;;;;51.95;10.38;;;;;;;;;;6297353;28;20048;-61
2024/01/02 00:12:05;;;;;;;41.00;10.02;;;;;;;;;;6304269;28;20492;-61
2024/01/02 00:15:07;;;;;;;28.75;8.77;;;;;;;;;;6289063;28;20486;-61
2024/01/02 00:18:07;;;;;;;29.83;10.47;;;;;;;;;;6282241;28;20083;-62
2024/01/02 00:21:08;;;;;;;30.67;10.32;;;;;;;;;;6300469;28;20068;-62
2024/01/02 00:24:09;;;;;;;32.45;8.77;;;;;;;;;;6309652;28;20052;-61
2024/01/02 00:27:10;;;;;;;34.97;9.30;;;;;;;;;;6302662;28;20162;-61
2024/01/02 00:30:11;;;;;;;30.88;10.27;;;;;;;;;;6298950;28;20049;-61
2024/01/02 00:33:11;;;;;;;35.78;9.15;;;;;;;;;;6291367;28;20055;-61
2024/01/02 00:36:12;;;;;;;37.42;11.18;;;;;;;;;;6311054;28;20422;-61
2024/01/02 00:39:13;;;;;;;33.58;9.25;;;;;;;;;;6311333;28;20572;-61
2024/01/02 00:42:14;;;;;;;29.15;9.52;;;;;;;;;;6314704;28;20454;-61
2024/01/02 00:45:15;;;;;;;33.15;9.95;;;;;;;;;;6314253;28;20059;-61
2024/01/02 00:48:15;;;;;;;30.80;10.23;;;;;;;;;;6301477;28;20384;-61
2024/01/02 00:51:16;;;;;;;31.30;10.50;;;;;;;;;;6297743;28;20400;-61
2024/01/02 00:54:17;;;;;;;36.90;10.68;;;;;;;;;;6302660;28;20048;-62
2024/01/02 00:57:18;;;;;;;35.70;9.98;;;;;;;;;;6312000;28;20519;-61
2024/01/02 01:00:18;;;;;;;32.72;10.88;;;;;;;;;;6312015;28;20044;-62
2024/01/02 01:03:19;;;;;;;34.25;11.18;;;;;;;;;;6314768;28;20052;-62
2024/01/02 01:06:20;;;;;;;34.83;11.00;;;;;;;;;;6309211;28;20055;-60
2024/01/02 01:09:21;;;;;;;39.10;11.93;;;;;;;;;;6303393;28;20055;-62
2024/01/02 01:12:22;;;;;;;31.70;11.45;;;;;;;;;;6313759;28;20096;-61
2024/01/02 01:15:23;;;;;;;33.53;11.10;;;;;;;;;;6310713;28;20048;-62
2024/01/02 01:18:24;;;;;;;42.33;13.00;;;;;;;;;;6311401;28;20059;-61
2024/01/02 01:21:24;;;;;;;41.95;12.40;;;;;;;;;;6313770;28;20044;-61
2024/01/02 01:24:25;;;;;;;35.80;11.93;;;;;;;;;;6301972;28;20048;-61
2024/01/02 01:27:27;;;;;;;39.25;11.18;;;;;;;;;;6311453;28;20079;-61
2024/01/02 01:30:27;;;;;;;35.05;11.77;;;;;;;;;;6313345;28;20051;-61
2024/01/02 01:33:28;;;;;;;38.17;11.73;;;;;;;;;;6313248;28;20387;-61
2024/01/02 01:36:29;;;;;;;31.48;10.10;;;;;;;;;;6308440;28;20056;-61
2024/01/02 01:39:31;;;;;;;32.85;10.23;;;;;;;;;;6312848;28;20085;-62
2024/01/02 01:42:31;;;;;;;29.98;9.82;;;;;;;;;;6311564;28;20077;-61
2024/01/02 01:45:32;;;;;;;37.08;10.13;;;;;;;;;;6312125;28;20532;-61
2024/01/02 01:48:34;;;;;;;36.92;11.07;;;;;;;;;;6311201;28;20051;-62
2024/01/02 01:51:37;;;;;;;30.30;9.65;;;;;;;;;;6311986;28;20052;-61
2024/01/02 01:54:38;;;;;;;32.30;11.15;;;;;;;;;;6311226;28;20051;-61
2024/01/02 01:57:41;;;;;;;29.10;9.57;;;;;;;;;;6308688;28;20051;-61
2024/01/02 02:00:42;;;;;;;25.35;9.10;;;;;;;;;;6313330;28;20050;-61
2024/01/02 02:03:43;;;;;;;32.10;9.97;;;;;;;;;;6310666;28;20044;-61
2024/01/02 02:06:44;;;;;;;26.55;10.00;;;;;;;;;;6309476;28;20056;-62
2024/01/02 02:09:45;;;;;;;35.20;10.18;;;;;;;;;;6310948;28;20074;-61
2024/01/02 02:12:46;;;;;;;32.22;10.73;;;;;;;;;;6310251;28;20048;-62
2024/01/02 02:15:48;;;;;;;26.23;9.82;;;;;;;;;;6307987;28;20054;-62
2024/01/02 02:18:49;;;;;;;34.85;9.90;;;;;;;;;;6300717;28;20064;-62
2024/01/02 02:21:51;;;;;;;26.85;9.52;;;;;;;;;;6283929;28;20041;-61
2024/01/02 02:24:52;;;;;;;29.25;8.88;;;;;;;;;;6291505;28;20048;-62
2024/01/02 02:27:53;;;;;;;28.75;9.20;;;;;;;;;;6282336;28;20516;-61
2024/01/02 02:30:53;;;;;;;28.65;8.60;;;;;;;;;;6290815;28;20141;-61
2024/01/02 02:33:54;;;;;;;29.88;9.60;;;;;;;;;;6307641;28;20048;-61
2024/01/02 02:36:55;;;;;;;30.95;9.73;;;;;;;;;;6292304;28;20040;-62
2024/01/02 02:39:56;;;;;;;26.50;8.85;;;;;;;;;;6312113;28;20036;-62
2024/01/02 02:42:56;;;;;;;29.80;9.48;;;;;;;;;;6311293;28;20040;-61
2024/01/02 02:45:57;;;;;;;28.90;8.95;;;;;;;;;;6308082;28;20051;-61
2024/01/02 02:48:57;;;;;;;28.38;8.68;;;;;;;;;;6308578;28;20459;-60
2024/01/02 02:51:58;;;;;;;30.65;8.93;;;;;;;;;;6312592;28;20039;-61
2024/01/02 02:54:59;;;;;;;28.33;8.70;;;;;;;;;;6311989;28;20048;-61
2024/01/02 02:58:00;;;;;;;24.08;8.68;;;;;;;;;;6307997;28;20097;-61
2024/01/02 03:01:01;;;;;;;24.08;7.82;;;;;;;;;;6313651;28;20068;-60
2024/01/02 03:04:03;;;;;;;26.70;9.00;;;;;;;;;;6315655;28;20047;-61
2024/01/02 03:07:04;;;;;;;28.73;8.82;;;;;;;;;;6315128;28;20087;-61
2024/01/02 03:10:05;;;;;;;24.70;8.18;;;;;;;;;;6315580;28;20364;-61
2024/01/02 03:13:06;;;;;;;28.23;8.07;;;;;;;;;;6315838;28;20665;-61
2024/01/02 03:16:10;;;;;;;24.42;8.27;;;;;;;;;;6314695;28;20306;-61
2024/01/02 03:19:10;;;;;;;26.83;9.07;;;;;;;;;;6315426;28;20047;-60
2024/01/02 03:22:11;;;;;;;22.02;7.97;;;;;;;;;;6317805;28;20407;-61
2024/01/02 03:25:12;;;;;;;27.15;8.73;;;;;;;;;;6315291;28;20047;-61
2024/01/02 03:28:13;;;;;;;25.17;8.50;;;;;;;;;;6313727;28;20052;-61
2024/01/02 03:31:14;;;;;;;20.90;8.15;;;;;;;;;;6318352;28;20756;-61
2024/01/02 03:34:15;;;;;;;24.35;8.60;;;;;;;;;;6312336;28;20048;-60
2024/01/02 03:37:16;;;;;;;22.23;7.93;;;;;;;;;;6313169;28;20040;-61
2024/01/02 03:40:17;;;;;;;26.88;7.65;;;;;;;;;;6314685;28;20048;-61
2024/01/02 03:43:17;;;;;;;25.92;8.23;;;;;;;;;;6314970;28;20052;-60
2024/01/02 03:46:18;;;;;;;21.92;8.55;;;;;;;;;;6314927;28;20105;-60
2024/01/02 03:49:19;;;;;;;23.05;6.65;;;;;;;;;;6312645;28;20059;-60
2024/01/02 03:52:20;;;;;;;27.15;7.97;;;;;;;;;;6313629;28;20828;-61
2024/01/02 03:55:20;;;;;;;23.08;7.40;;;;;;;;;;6314424;28;20085;-61
2024/01/02 03:58:21;;;;;;;25.80;7.80;;;;;;;;;;6311377;28;20040;-61
2024/01/02 04:01:22;;;;;;;20.08;6.57;;;;;;;;;;6314554;28;20146;-61
2024/01/02 04:04:22;;;;;;;23.27;6.63;;;;;;;;;;6315288;28;20097;-60
2024/01/02 04:07:23;;;;;;;17.63;6.05;;;;;;;;;;6312851;28;20055;-60
2024/01/02 04:10:24;;;;;;;16.35;6.43;;;;;;;;;;6316188;28;20636;-61
2024/01/02 04:13:25;;;;;;;19.60;7.32;;;;;;;;;;6310599;28;20048;-60
2024/01/02 04:16:26;;;;;;;20.58;6.05;;;;;;;;;;6312690;28;20483;-62
2024/01/02 04:19:26;;;;;;;17.67;6.47;;;;;;;;;;6314383;28;20085;-60
2024/01/02 04:22:27;;;;;;;18.67;6.10;;;;;;;;;;6313215;28;20886;-62
2024/01/02 04:25:28;;;;;;;17.05;5.63;;;;;;;;;;6313563;28;20459;-60
2024/01/02 04:28:29;;;;;;;20.15;5.88;;;;;;;;;;6312001;28;20048;-62
2024/01/02 04:31:29;;;;;;;18.48;5.25;;;;;;;;;;6311327;28;20435;-61
2024/01/02 04:34:30;;;;;;;17.77;6.30;;;;;;;;;;6311568;28;20086;-61
2024/01/02 04:37:30;;;;;;;17.23;5.07;;;;;;;;;;6288137;28;20052;-60
2024/01/02 04:40:31;;;;;;;18.35;5.85;;;;;;;;;;6287443;28;20044;-60
2024/01/02 04:43:32;;;;;;;18.30;6.10;;;;;;;;;;6288263;28;20496;-60
2024/01/02 04:46:34;;;;;;;14.63;4.93;;;;;;;;;;6286746;28;20131;-61
2024/01/02 04:49:35;;;;;;;20.70;4.97;;;;;;;;;;6289377;28;20105;-60
2024/01/02 04:52:35;;;;;;;18.17;6.38;;;;;;;;;;6291196;28;20124;-61
2024/01/02 04:55:36;;;;;;;17.85;5.55;;;;;;;;;;6288222;28;20040;-60
2024/01/02 04:58:37;;;;;;;21.38;6.13;;;;;;;;;;6287831;28;20418;-61
2024/01/02 05:01:37;;;;;;;24.77;7.20;;;;;;;;;;6289443;28;20052;-60
2024/01/02 05:04:40;;;;;;;23.00;7.68;;;;;;;;;;6291115;28;20391;-61
2024/01/02 05:07:41;;;;;;;17.27;6.10;;;;;;;;;;6288946;28;20086;-61
2024/01/02 05:10:42;;;;;;;21.60;6.20;;;;;;;;;;6287486;28;20052;-62
2024/01/02 05:13:43;;;;;;;22.08;6.15;;;;;;;;;;6289988;28;20503;-61
2024/01/02 05:16:43;;;;;;;18.35;5.30;;;;;;;;;;6287139;28;20044;-61
2024/01/02 05:19:44;;;;;;;18.17;5.45;;;;;;;;;;6289250;28;20578;-61
2024/01/02 05:22:45;;;;;;;19.67;5.82;;;;;;;;;;6288026;28;20056;-61
2024/01/02 05:25:46;;;;;;;18.80;5.00;;;;;;;;;;6289053;28;20056;-61
2024/01/02 05:28:46;;;;;;;28.45;6.85;;;;;;;;;;6289943;28;20125;-60
2024/01/02 05:31:47;;;;;;;19.70;5.45;;;;;;;;;;6290915;28;20055;-61
2024/01/02 05:34:48;;;;;;;13.80;5.32;;;;;;;;;;6290190;28;20041;-60
2024/01/02 05:37:49;;;;;;;18.73;5.45;;;;;;;;;;6289141;28;20044;-60
2024/01/02 05:40:49;;;;;;;18.42;5.53;;;;;;;;;;6288416;28;20452;-62
2024/01/02 05:43:50;;;;;;;20.60;5.10;;;;;;;;;;6286872;28;20094;-62
2024/01/02 05:46:51;;;;;;;21.65;5.07;;;;;;;;;;6286713;28;20557;-61
2024/01/02 05:49:53;;;;;;;14.18;4.78;;;;;;;;;;6289097;28;20044;-61
2024/01/02 05:52:53;;;;;;;26.00;5.35;;;;;;;;;;6291045;28;20544;-60
2024/01/02 05:55:54;;;;;;;17.63;5.05;;;;;;;;;;6289352;28;20049;-61
2024/01/02 05:58:55;;;;;;;16.15;5.28;;;;;;;;;;6288344;28;20118;-60
2024/01/02 06:01:55;;;;;;;21.98;5.50;;;;;;;;;;6288308;28;20052;-62
2024/01/02 06:04:56;;;;;;;29.90;6.68;;;;;;;;;;6287984;28;20487;-63
2024/01/02 06:07:57;;;;;;;23.63;6.22;;;;;;;;;;6288081;28;20052;-62
2024/01/02 06:10:58;;;;;;;20.20;5.43;;;;;;;;;;6286679;28;20392;-61
2024/01/02 06:13:58;;;;;;;17.42;5.05;;;;;;;;;;6287165;28;20045;-62
2024/01/02 06:16:59;;;;;;;21.42;5.43;;;;;;;;;;6288191;28;20094;-62
2024/01/02 06:20:00;;;;;;;21.40;6.18;;;;;;;;;;6288032;28;20044;-63
2024/01/02 06:23:02;;;;;;;18.58;5.60;;;;;;;;;;6286499;28;20040;-62
2024/01/02 06:26:03;;;;;;;19.02;5.55;;;;;;;;;;6285197;28;20041;-62
2024/01/02 06:29:04;;;;;;;18.67;5.43;;;;;;;;;;6286305;28;20454;-62
2024/01/02 06:32:05;;;;;;;25.05;5.90;;;;;;;;;;6287960;28;20049;-62
2024/01/02 06:35:07;;;;;;;33.15;9.80;;;;;;;;;;6292053;28;20052;-62
2024/01/02 06:38:08;;;;;;;27.23;7.50;;;;;;;;;;6291912;28;20675;-61
2024/01/02 06:41:09;;;;;;;27.52;7.45;;;;;;;;;;6293580;28;20140;-62
2024/01/02 06:44:11;;;;;;;25.48;7.97;;;;;;;;;;6292490;28;20484;-62
2024/01/02 06:47:12;;;;;;;19.75;5.55;;;;;;;;;;6292453;28;20047;-62
2024/01/02 06:50:12;;;;;;;24.02;6.40;;;;;;;;;;6293154;28;20041;-62
2024/01/02 06:53:13;;;;;;;18.10;5.20;;;;;;;;;;6294924;28;20048;-60
2024/01/02 06:56:14;;;;;;;24.95;6.20;;;;;;;;;;6291515;28;20055;-61
2024/01/02 06:59:14;;;;;;;18.38;5.15;;;;;;;;;;6291131;28;20064;-61
2024/01/02 07:02:15;;;;;;;18.02;5.78;;;;;;;;;;6293851;28;20048;-60
2024/01/02 07:05:16;;;;;;;22.10;5.50;;;;;;;;;;6294867;28;20059;-60
2024/01/02 07:08:17;;;;;;;17.35;4.88;;;;;;;;;;6292700;28;20059;-61
2024/01/02 07:11:18;;;;;;;19.23;6.35;;;;;;;;;;6291609;28;20057;-61
2024/01/02 07:14:19;;;;;;;19.63;5.40;;;;;;;;;;6293854;28;20154;-62
2024/01/02 07:17:21;;;;;;;21.20;6.70;;;;;;;;;;6291443;28;20040;-61
2024/01/02 07:20:21;;;;;;;25.52;8.20;;;;;;;;;;6292218;28;20052;-61
2024/01/02 07:23:23;;;;;;;25.38;8.20;;;;;;;;;;6293019;28;20429;-60
2024/01/02 07:26:24;;;;;;;24.05;7.68;;;;;;;;;;6290899;28;20076;-60
2024/01/02 07:29:25;;;;;;;30.88;10.27;;;;;;;;;;6290758;28;20049;-60
2024/01/02 07:32:25;;;;;;;28.13;7.60;;;;;;;;;;6291499;28;20044;-61
2024/01/02 07:35:26;;;;;;;26.10;8.27;;;;;;;;;;6292402;28;20048;-61
2024/01/02 07:38:27;;;;;;;23.85;8.77;;;;;;;;;;6291962;28;20041;-61
2024/01/02 07:41:28;;;;;;;25.27;8.93;;;;;;;;;;6291408;28;20055;-60
2024/01/02 07:44:28;;;;;;;28.13;8.60;;;;;;;;;;6292382;28;20045;-60
2024/01/02 07:47:29;;;;;;;26.00;7.53;;;;;;;;;;6290708;28;20053;-60
2024/01/02 07:50:30;;;;;;;23.45;8.07;;;;;;;;;;6291950;28;20048;-60
2024/01/02 07:53:35;;;;;;;26.58;9.07;;;;;;;;;;6291846;28;20131;-60
2024/01/02 07:56:35;;;;;;;23.75;9.30;;;;;;;;;;6291620;28;20127;-61
2024/01/02 07:59:36;;;;;;;26.63;9.45;;;;;;;;;;6291891;28;20387;-60
2024/01/02 08:02:37;;;;;;;24.48;7.68;;;;;;;;;;6292743;28;20041;-60
2024/01/02 08:05:38;;;;;;;26.77;8.18;;;;;;;;;;6291913;28;20064;-60
2024/01/02 08:08:39;;;;;;;23.15;7.85;;;;;;;;;;6291042;28;20045;-62
2024/01/02 08:11:39;;;;;;;33.50;9.15;;;;;;;;;;6291668;28;20048;-59
2024/01/02 08:14:40;;;;;;;33.55;9.55;;;;;;;;;;6291127;28;20052;-62
2024/01/02 08:17:41;;;;;;;22.73;7.30;;;;;;;;;;6290602;28;20051;-61
2024/01/02 08:20:41;;;;;;;23.88;8.52;;;;;;;;;;6291692;28;20041;-59
2024/01/02 08:23:42;;;;;;;23.30;8.95;;;;;;;;;;6290407;28;20523;-62
2024/01/02 08:26:43;;;;;;;22.35;7.90;;;;;;;;;;6289893;28;20123;-59
2024/01/02 08:29:44;;;;;;;25.85;8.30;;;;;;;;;;6291009;28;20102;-62
2024/01/02 08:32:45;;;;;;;22.60;7.97;;;;;;;;;;6291855;28;20052;-62
2024/01/02 08:35:45;;;;;;;22.45;7.45;;;;;;;;;;6291186;28;20051;-62
2024/01/02 08:38:46;;;;;;;24.67;7.07;;;;;;;;;;6290325;28;20430;-60
2024/01/02 08:41:47;;;;;;;23.80;6.97;;;;;;;;;;6291858;28;20125;-62
2024/01/02 08:44:48;;;;;;;19.50;6.97;;;;;;;;;;6291403;28;20496;-59
2024/01/02 08:47:48;;;;;;;21.30;5.95;;;;;;;;;;6290022;28;20135;-59
2024/01/02 08:50:49;;;;;;;21.23;5.97;;;;;;;;;;6291805;28;20040;-62
2024/01/02 08:53:50;;;;;;;24.13;5.80;;;;;;;;;;6290488;28;20068;-59
2024/01/02 08:56:50;;;;;;;17.73;5.30;;;;;;;;;;6288975;28;20049;-60
2024/01/02 08:59:51;;;;;;;23.77;5.85;;;;;;;;;;6290798;28;20131;-60
2024/01/02 09:02:52;;;;;;;18.67;5.53;;;;;;;;;;6290754;28;20051;-60
2024/01/02 09:05:53;;;;;;;22.17;5.20;;;;;;;;;;6288508;28;20439;-60
2024/01/02 09:08:57;;;;;;;18.40;5.05;;;;;;;;;;6288402;28;20132;-60
2024/01/02 09:11:57;;;;;;;25.02;6.93;;;;;;;;;;6290946;28;20036;-59
2024/01/02 09:14:58;;;;;;;15.55;4.50;;;;;;;;;;6290811;28;20044;-60
2024/01/02 09:17:59;;;;;;;20.38;5.75;;;;;;;;;;6289383;28;20109;-60
2024/01/02 09:20:59;;;;;;;21.08;5.43;;;;;;;;;;6290450;28;20437;-60
2024/01/02 09:24:00;;;;;;;18.85;4.45;;;;;;;;;;6289943;28;20060;-59
2024/01/02 09:27:04;;;;;;;17.73;5.40;;;;;;;;;;6289249;28;20044;-61
2024/01/02 09:30:06;;;;;;;20.92;4.68;;;;;;;;;;6287925;28;20074;-60
2024/01/02 09:33:10;;;;;;;17.00;6.80;;;;;;;;;;6288057;28;20094;-60
2024/01/02 09:36:13;;;;;;;19.25;4.65;;;;;;;;;;6289860;28;20053;-60
2024/01/02 09:39:14;;;;;;;33.53;8.90;;;;;;;;;;6288467;28;20573;-60
2024/01/02 09:42:47;;;;;;;14.43;5.57;;;;;;;;;;6289994;28;20056;-60
2024/01/02 09:46:08;;;;;;;16.92;5.15;;;;;;;;;;6290166;28;20045;-61
2024/01/02 09:49:31;;;;;;;16.65;5.75;;;;;;;;;;6289466;28;20048;-60
2024/01/02 09:52:31;;;;;;;;;;;;;;;;;;6288615;28;20056;-60
2024/01/02 09:55:48;;;;;;;34.30;9.80;;;;;;;;;;6286416;28;20283;-60
2024/01/02 09:59:04;;;;;;;26.75;8.65;;;;;;;;;;6283078;28;20075;-60
2024/01/02 10:02:23;;;;;;;41.35;11.23;;;;;;;;;;6290379;28;20052;-61
2024/01/02 10:06:12;;;;;;;48.88;11.02;;;;;;;;;;6287161;28;20067;-60
2024/01/02 10:09:21;;;;;;;28.15;8.75;;;;;;;;;;6291755;28;20056;-60
2024/01/02 10:12:49;;;;;;;29.65;9.43;;;;;;;;;;6294403;28;20094;-60
2024/01/02 10:16:06;;;;;;;27.35;8.40;;;;;;;;;;6292960;28;20040;-61
2024/01/02 10:19:25;;;;;;;23.90;8.23;;;;;;;;;;6291531;28;20498;-60
2024/01/02 10:22:31;;;;;;;27.58;7.47;;;;;;;;;;6279393;28;20303;-60
2024/01/02 10:25:32;;;;;;;23.17;7.50;;;;;;;;;;6284647;28;20052;-60
2024/01/02 10:28:36;;;;;;;25.88;7.40;;;;;;;;;;6289545;28;20044;-60
2024/01/02 10:31:53;;;;;;;28.17;8.35;;;;;;;;;;6287594;28;20419;-60
2024/01/02 10:35:04;;;;;;;27.13;7.90;;;;;;;;;;6286176;28;20045;-60
2024/01/02 10:38:12;;;;;;;25.67;7.25;;;;;;;;;;6286622;28;20088;-60
2024/01/02 10:41:43;;;;;;;22.77;6.50;;;;;;;;;;6288995;28;20098;-60
2024/01/02 10:45:01;;;;;;;25.88;7.30;;;;;;;;;;6292952;28;20106;-60
2024/01/02 10:48:30;;;;;;;24.17;8.38;;;;;;;;;;6308633;28;20036;-60
2024/01/02 10:51:42;;;;;;;41.83;9.60;;;;;;;;;;6289976;28;20914;-60
2024/01/02 10:55:03;;;;;;;22.98;7.78;;;;;;;;;;6285761;28;20449;-60
2024/01/02 10:58:23;;;;;;;28.75;9.85;;;;;;;;;;6283642;28;20041;-61
2024/01/02 11:01:26;;;;;;;27.27;9.20;;;;;;;;;;6281733;28;20036;-60
2024/01/02 11:04:46;;;;;;;31.38;10.30;;;;;;;;;;6285765;28;20473;-61
2024/01/02 11:07:50;;;;;;;28.95;8.70;;;;;;;;;;6289062;28;20573;-60
2024/01/02 11:11:01;;;;;;;26.50;8.80;;;;;;;;;;6284761;28;20430;-61
2024/01/02 11:14:02;;;;;;;35.90;10.50;;;;;;;;;;6290510;28;20509;-64
2024/01/02 11:17:06;;;;;;;29.60;9.65;;;;;;;;;;6284082;28;20060;-63
2024/01/02 11:20:11;;;;;;;29.20;8.98;;;;;;;;;;6291482;28;20056;-63
2024/01/02 11:23:18;;;;;;;29.63;10.10;;;;;;;;;;6290458;28;20402;-63
2024/01/02 11:26:29;;;;;;;27.05;8.18;;;;;;;;;;6290121;28;20051;-62
2024/01/02 11:29:35;;;;;;;31.90;9.60;;;;;;;;;;6288435;28;20075;-62
2024/01/02 11:33:10;;;;;;;31.58;9.57;;;;;;;;;;6292191;28;20083;-62
2024/01/02 11:36:26;;;;;;;37.88;13.73;;;;;;;;;;6269960;28;20489;-63
2024/01/02 11:39:32;;;;;;;27.50;8.23;;;;;;;;;;6294241;28;20044;-62
2024/01/02 11:42:36;;;;;;;24.60;9.05;;;;;;;;;;6284128;28;20136;-61
2024/01/02 11:45:38;;;;;;;31.77;9.60;;;;;;;;;;6292527;28;20040;-61
2024/01/02 11:48:59;;;;;;;28.17;9.37;;;;;;;;;;6293591;28;20086;-62
2024/01/02 11:52:15;;;;;;;22.25;7.20;;;;;;;;;;6288488;28;20430;-61
2024/01/02 11:55:23;;;;;;;19.80;6.68;;;;;;;;;;6292697;28;20396;-62
2024/01/02 11:58:27;;;;;;;23.95;6.95;;;;;;;;;;6292512;28;20052;-62
2024/01/02 12:01:57;;;;;;;21.95;7.32;;;;;;;;;;6292513;28;20045;-60
2024/01/02 12:05:42;;;;;;;18.50;6.30;;;;;;;;;;6293767;28;20060;-62
2024/01/02 12:08:50;;;;;;;19.50;6.50;;;;;;;;;;6260081;28;20056;-64
2024/01/02 12:12:23;;;;;;;19.77;6.00;;;;;;;;;;6290001;28;20086;-63
2024/01/02 12:15:49;;;;;;;20.33;6.80;;;;;;;;;;6273530;28;20491;-63
2024/01/02 12:18:51;;;;;;;19.60;6.78;;;;;;;;;;6288094;28;20036;-63
2024/01/02 12:21:55;;;;;;;21.33;5.60;;;;;;;;;;6290391;28;20044;-63
2024/01/02 12:24:58;;;;;;;19.60;5.88;;;;;;;;;;6293082;28;20090;-63
2024/01/02 12:28:01;;;;;;;16.85;4.75;;;;;;;;;;6288436;28;20045;-65
2024/01/02 12:31:11;;;;;;;26.75;9.00;;;;;;;;;;6289540;28;20527;-64
2024/01/02 12:34:37;;;;;;;18.70;5.43;;;;;;;;;;6284749;28;20044;-63
2024/01/02 12:37:55;;;;;;;16.58;5.05;;;;;;;;;;6292284;28;20056;-62
2024/01/02 12:40:59;;;;;;;19.17;5.13;;;;;;;;;;6290779;28;20050;-62
2024/01/02 12:44:06;;;;;;;19.60;5.63;;;;;;;;;;6292227;28;20044;-62
2024/01/02 12:47:09;;;;;;;23.30;5.97;;;;;;;;;;6292701;28;20574;-63
2024/01/02 12:50:11;;;;;;;21.95;7.18;;;;;;;;;;6291201;28;20135;-62
2024/01/02 12:53:14;;;;;;;17.65;5.80;;;;;;;;;;6288104;28;20079;-62
2024/01/02 12:56:20;;;;;;;15.35;4.95;;;;;;;;;;6286286;28;20213;-62
2024/01/02 12:59:27;;;;;;;16.63;4.63;;;;;;;;;;6286910;28;20045;-62
2024/01/02 13:02:30;;;;;;;13.10;5.13;;;;;;;;;;6285914;28;20658;-62
2024/01/02 13:05:31;;;;;;;17.52;4.57;;;;;;;;;;6287095;28;20153;-62
2024/01/02 13:08:32;;;;;;;12.15;3.90;;;;;;;;;;6287232;28;20737;-62
2024/01/02 13:11:33;;;;;;;15.68;4.07;;;;;;;;;;6288287;28;20052;-62
2024/01/02 13:14:34;;;;;;;14.48;3.53;;;;;;;;;;6290466;28;20040;-62
2024/01/02 13:17:36;;;;;;;13.63;4.03;;;;;;;;;;6290821;28;20122;-63
2024/01/02 13:20:38;;;;;;;13.85;3.90;;;;;;;;;;6288512;28;20094;-62
2024/01/02 13:23:58;;;;;;;17.70;3.25;;;;;;;;;;6289061;28;20486;-62
2024/01/02 13:26:59;;;;;;;22.13;5.47;;;;;;;;;;6283993;28;20049;-62
2024/01/02 13:30:00;;;;;;;29.42;7.80;;;;;;;;;;6289375;28;20075;-62
2024/01/02 13:33:00;;;;;;;12.10;4.50;;;;;;;;;;6287927;28;20040;-62
2024/01/02 13:36:05;;;;;;;13.73;4.10;;;;;;;;;;6290729;28;20045;-63
2024/01/02 13:39:06;;;;;;;14.45;3.20;;;;;;;;;;6288726;28;20125;-62
2024/01/02 13:42:07;;;;;;;12.90;4.70;;;;;;;;;;6288626;28;20044;-63
2024/01/02 13:45:22;;;;;;;17.08;6.47;;;;;;;;;;6288885;28;20049;-62
2024/01/02 13:48:23;;;;;;;10.57;4.78;;;;;;;;;;6287590;28;20059;-62
2024/01/02 13:51:30;;;;;;;18.10;5.28;;;;;;;;;;6289898;28;20062;-62
2024/01/02 13:54:43;;;;;;;8.68;2.60;;;;;;;;;;6288405;28;20056;-62
2024/01/02 13:57:44;;;;;;;12.10;3.15;;;;;;;;;;6290220;28;20531;-62
2024/01/02 14:00:50;;;;;;;10.60;3.17;;;;;;;;;;6289687;28;20052;-62
2024/01/02 14:03:50;;;;;;;8.15;3.42;;;;;;;;;;6288614;28;20052;-63
2024/01/02 14:06:52;;;;;;;9.18;2.83;;;;;;;;;;6288628;28;20048;-62
2024/01/02 14:09:54;;;;;;;10.13;2.30;;;;;;;;;;6289603;28;20047;-63
2024/01/02 14:12:56;;;;;;;10.93;3.00;;;;;;;;;;6289588;28;20045;-62
2024/01/02 14:16:05;;;;;;;7.43;2.60;;;;;;;;;;6286656;28;20151;-63
2024/01/02 14:19:06;;;;;;;9.85;2.33;;;;;;;;;;6289522;28;20068;-64
2024/01/02 14:22:28;;;;;;;9.98;3.22;;;;;;;;;;6289082;28;20045;-62
2024/01/02 14:25:32;;;;;;;10.80;2.78;;;;;;;;;;6288652;28;20047;-62
2024/01/02 14:28:59;;;;;;;8.40;3.00;;;;;;;;;;6287760;28;20826;-62
2024/01/02 14:32:07;;;;;;;8.98;2.15;;;;;;;;;;6289362;28;20038;-62
2024/01/02 14:35:28;;;;;;;37.40;23.08;;;;;;;;;;6287311;28;20106;-63
2024/01/02 14:38:50;;;;;;;62.08;20.77;;;;;;;;;;6284751;28;20048;-63
2024/01/02 14:42:05;;;;;;;20.45;8.82;;;;;;;;;;6285436;28;20053;-63
2024/01/02 14:45:29;;;;;;;21.17;8.15;;;;;;;;;;6264881;28;20052;-62
2024/01/02 14:49:03;;;;;;;44.17;13.18;;;;;;;;;;6285961;28;20060;-63
2024/01/02 14:52:16;;;;;;;42.90;13.63;;;;;;;;;;6289238;28;20044;-62
2024/01/02 14:55:36;;;;;;;;;;;;;;;;;;6289730;28;20491;-62
2024/01/02 14:58:59;;;;;;;29.95;10.75;;;;;;;;;;6292165;28;19920;-62
2024/01/02 15:02:14;;;;;;;46.08;12.40;;;;;;;;;;6291801;28;20125;-62
2024/01/02 15:05:52;;;;;;;25.73;8.15;;;;;;;;;;6269769;28;20167;-62
2024/01/02 15:09:22;;;;;;;44.22;11.57;;;;;;;;;;6272373;28;20061;-66
2024/01/02 15:12:37;;;;;;;58.55;16.70;;;;;;;;;;6270945;28;20068;-65
2024/01/02 15:16:12;;;;;;;16.95;5.80;;;;;;;;;;6275351;28;20044;-67
2024/01/02 15:19:44;;;;;;;18.60;5.88;;;;;;;;;;6272959;28;20045;-66
2024/01/02 15:23:15;;;;;;;13.02;6.47;;;;;;;;;;6266754;28;20045;-65
2024/01/02 15:27:01;;;;;;;14.57;6.28;;;;;;;;;;6268823;28;20258;-65
2024/01/02 15:30:04;;;;;;;13.10;4.90;;;;;;;;;;6273572;28;20048;-67
2024/01/02 15:33:10;;;;;;;9.93;3.25;;;;;;;;;;6268619;28;20048;-65
2024/01/02 15:36:23;;;;;;;8.43;3.28;;;;;;;;;;6272120;28;20048;-65
2024/01/02 15:39:29;;;;;;;8.15;3.55;;;;;;;;;;6276866;28;20036;-66
2024/01/02 15:42:38;;;;;;;8.93;3.28;;;;;;;;;;6266634;28;20940;-64
2024/01/02 15:46:16;;;;;;;9.82;3.80;;;;;;;;;;6276222;28;20575;-65
2024/01/02 15:49:26;;;;;;;13.35;5.03;;;;;;;;;;6269050;28;20053;-65
2024/01/02 15:52:42;;;;;;;18.10;8.80;;;;;;;;;;6269940;28;20056;-68
2024/01/02 15:55:50;;;;;;;26.95;12.82;;;;;;;;;;6276201;28;20526;-66
2024/01/02 15:59:02;;;;;;;27.38;12.25;;;;;;;;;;6267273;28;20043;-64
2024/01/02 16:02:45;;;;;;;15.02;5.45;;;;;;;;;;6268040;28;20052;-66
2024/01/02 16:06:07;;;;;;;8.95;4.07;;;;;;;;;;6278427;28;20101;-66
2024/01/02 16:09:17;;;;;;;14.15;6.43;;;;;;;;;;6270405;28;20057;-67
2024/01/02 16:12:48;;;;;;;14.93;6.55;;;;;;;;;;6271280;28;20056;-66
2024/01/02 16:16:13;;;;;;;10.88;4.85;;;;;;;;;;6269102;28;20060;-65
2024/01/02 16:19:38;;;;;;;12.15;5.13;;;;;;;;;;6272715;28;20397;-66
2024/01/02 16:22:42;;;;;;;13.82;4.68;;;;;;;;;;6271643;28;20055;-65
2024/01/02 16:26:15;;;;;;;16.20;5.55;;;;;;;;;;6267997;28;20056;-63
2024/01/02 16:29:37;;;;;;;9.65;4.25;;;;;;;;;;6269589;28;20472;-63
2024/01/02 16:32:41;;;;;;;19.30;7.03;;;;;;;;;;6269897;28;20250;-64
2024/01/02 16:36:16;;;;;;;27.50;9.90;;;;;;;;;;6269564;28;20048;-64
2024/01/02 16:39:22;;;;;;;33.58;13.48;;;;;;;;;;6268255;28;20099;-66
2024/01/02 16:42:29;;;;;;;36.53;14.15;;;;;;;;;;6274174;28;20048;-65
2024/01/02 16:45:33;;;;;;;23.98;8.70;;;;;;;;;;6273944;28;20394;-64
2024/01/02 16:48:36;;;;;;;24.80;9.32;;;;;;;;;;6271250;28;20044;-65
2024/01/02 16:51:37;;;;;;;21.27;8.50;;;;;;;;;;6268692;28;20162;-64
2024/01/02 16:54:42;;;;;;;21.58;7.82;;;;;;;;;;6271150;28;20059;-65
2024/01/02 16:57:44;;;;;;;17.00;6.88;;;;;;;;;;6270365;28;20044;-64
2024/01/02 17:00:47;;;;;;;17.30;5.78;;;;;;;;;;6265200;28;20056;-65
2024/01/02 17:03:48;;;;;;;;;;;;;;;;;;6264837;28;20049;-66
2024/01/02 17:06:52;;;;;;;25.50;8.75;;;;;;;;;;6269951;28;19925;-67
2024/01/02 17:09:53;;;;;;;19.35;7.13;;;;;;;;;;6271536;28;20053;-68
2024/01/02 17:12:54;;;;;;;17.00;6.68;;;;;;;;;;6276486;28;20049;-66
2024/01/02 17:15:55;;;;;;;20.33;6.40;;;;;;;;;;6269371;28;20615;-66
2024/01/02 17:18:57;;;;;;;14.40;6.63;;;;;;;;;;6270944;28;20127;-68
2024/01/02 17:21:59;;;;;;;18.70;6.20;;;;;;;;;;6271132;28;20118;-69
2024/01/02 17:25:01;;;;;;;18.83;6.50;;;;;;;;;;6264411;28;20041;-66
2024/01/02 17:28:05;;;;;;;28.65;6.75;;;;;;;;;;6274325;28;20094;-66
2024/01/02 17:31:11;;;;;;;37.33;11.45;;;;;;;;;;6274839;28;20418;-63
2024/01/02 17:34:14;;;;;;;10.48;3.95;;;;;;;;;;6267646;28;20083;-65
2024/01/02 17:37:15;;;;;;;12.90;5.03;;;;;;;;;;6271640;28;20052;-65
2024/01/02 17:40:16;;;;;;;14.43;5.22;;;;;;;;;;6265486;28;20064;-65
2024/01/02 17:43:18;;;;;;;48.72;14.43;;;;;;;;;;6266214;28;20040;-63
2024/01/02 17:46:19;;;;;;;28.25;8.45;;;;;;;;;;6267049;28;20109;-64
2024/01/02 17:49:22;;;;;;;39.17;11.37;;;;;;;;;;6266617;28;20053;-63
2024/01/02 17:52:23;;;;;;;65.05;17.35;;;;;;;;;;6269985;28;20067;-67
2024/01/02 17:55:27;;;;;;;69.78;17.95;;;;;;;;;;6264083;28;20049;-62
2024/01/02 17:58:42;;;;;;;94.70;24.65;;;;;;;;;;6265927;28;20094;-63
2024/01/02 18:02:12;;;;;;;58.70;15.77;;;;;;;;;;6266313;28;20060;-63
2024/01/02 18:06:06;;;;;;;73.78;21.20;;;;;;;;;;6270054;28;20060;-64
2024/01/02 18:09:17;;;;;;;48.22;15.63;;;;;;;;;;6274662;28;20458;-64
2024/01/02 18:12:42;;;;;;;45.08;13.30;;;;;;;;;;6275194;28;20052;-62
2024/01/02 18:16:03;;;;;;;55.58;16.52;;;;;;;;;;6270733;28;20150;-63